Pagrindinis puslapis
METAR-TAF:

METAR-TAF

Oro uostai :

Mykolajivas, Ukraina

platuma: 47-03-29N, ilguma: 031-55-15E, Aukštis: 56 m

Dabartinis oras

Ataskaita buvo paskelbta 33 minutes, ne 07:00 UTC
Vėjas 14 kt iš Šiaurės/Šiaurės Vakarų, svyruoja nuo Vakarų/Šiaurės Vakarų ir Šiaurės
Temperatūra 16°C
Drėgmė 45%
Slėgis 1018 hPa
Matomumas 10 km arba daugiau
nėra debesų žemiau 1500 m ir nėra kamuolinių lietaus debesų

METAR: UKON 180700Z 34007MPS 300V010 CAVOK 16/04 Q1018 R04/090075 NOSIG

Laikas: 10:33 (07:33 UTC)

Prognozė

Ataskaita buvo paskelbta 2 valandos ir 31 minutes, ne 05:02 UTC
Prognozė galioja nuo 18 metu 06 UTC su 18 metu 15 UTC
Vėjas 16 kt iš Šiaurės su gūsio iki 29 kt
Matomumas 10 km arba daugiau
Išsisklaidę debesys ne aukštis 400 ft
Su prošvaistėmis ne aukštis 700 ft
Su prošvaistėmis ne aukštis 2000 ft, Liūtiniai kamuoliniai debesys.

TAF: UKON 180502Z 1806/1815 35008G15MPS 9999 SCT004 BKN007 BKN020CB

Orai ataskaitas ir orų prognozės (METAR, TAF).

turimą stotys yra geltonos ir raudonos taškus žemėlapyje.

Perkelti pele per norėdami pamatyti stoties vardą.

Tada spustelėkite, norėdami matyti oro stebėjimo ir prognozės.

Norėdami pakeisti žemėlapį: spustelėkite ant žalios mygtukų su juodo kryžiaus žemyn,; žalią mygtuką su brūkšneliu, jei norite nutolinti; arba žalių rodyklių gretimoms žemėlapius.


METAR-TAF: